首页
METAR-TAF:

METAR-TAF

机场 :

馬爾丁, 土耳其

纬度: 37-13-58N, 经度: 40-38-26E, 海拔: 527米

当前天气观测

该预报发布于1小时和7分钟前的08:50 UTC
风速9节,风向,在东南西南之间变化
温度 32°C
湿度 15%
气压 1011 hPa
能见度10公里或以上
1500米以下无云,无积雨云

METAR: LTCR 010850Z 18009KT 140V230 CAVOK 32/02 Q1011

时间: 12:57 (09:57 UTC)

预报

该预报发布于2小时和17分钟前的07:40 UTC
预报有效从01日的 09点(UTC)到 01日的 18点(UTC)
风速9节,风向南转西南
能见度10公里或以上
1500米以下无云,无积雨云

TAF: LTCR 010740Z 0109/0118 20009KT CAVOK

超过4000个机场的气象观测和天气预报(METAR&TAF报告)。

可查询的气象台以黄色和红色小点在地图上表示。

将鼠标移到小点上方,可查看气象台名称。

然后点击查看天气观测和预报。

如需切换地图:点击带黑十字的绿色按钮放大地图;点击带横线的绿色按钮缩小地图;或者点击绿色箭头查看邻近地区的地图。


METAR-TAF: